Broadland, South Dakota
Current Conditions -  °F | °C
As of 3:55 AM on Saturday 20 Dec 2014 (Local Time) from KHON Reporting Station
Moderate Fog Moderate Fog  
Wind Chill: 17°   Ceiling: 200
Heat Index: 26°   Visibility: 0.5mi
Dew Point: 25°   Wind: 9mph
Humidity: 96%   Direction: 150°SSE
Pressure: 30.03"   Gusts: NA
Location:  44.3587°N, 98.2248°W
Report Text: KHON 200955Z AUTO 15008KT 1/2SM FZFG VV002 M03/M04 A3003 RMK AO2 SLP185 I1000 T10331039
Loading
Personal Weather Stations






























Interactive Weather Map New forecast layout! Learn more

10-Day Weather Forecast

Advertisements
Track Severe Weather on mobile